Terminal Aerodrome Forecast
Issued by NWS

Home | Current Version | Previous Version | Text Only | Print | Product List | Glossary On
Versions: 1 2 3 4 5 6 7 8 9 10 11 12 13 14 15 16 17 18 19 20 21
000
FTUS41 KALY 160757 AAA
TAFPSF
TAF AMD
KPSF 160757Z 1608/1706 VRB03KT P6SM VCSH SCT015 BKN090
      TEMPO 1608/1612 OVC015
     FM161200 VRB03KT P6SM VCSH OVC015
      TEMPO 1613/1617 5SM -SN SCT015 OVC030
     FM161700 17006KT 2SM -SN BR OVC015=

USA.gov is the U.S. government's official web portal to all federal, state and local government web resources and services.